Time;durP1;ratioP1;P1;durP2;ratioP2;P2;SDS_P1;SDS_P2;PMS_P1;PMS_P2;Temp;Humidity;BMP_temperature;BMP_pressure;BME280_temperature;BME280_humidity;BME280_pressure;Samples;Min_cycle;Max_cycle;Signal;HPM_P1;HPM_P2
2023/03/31 06:09:04;;;;;;;;;;;;;;;10.41;100.00;97621.97;5166615;27;20753;-76
2023/03/31 06:11:30;;;;;;;;;;;;;;;10.48;100.00;97619.63;5150794;27;19915;-75
2023/03/31 06:13:55;;;;;;;1999.90;999.90;;;;;;;10.56;100.00;97607.97;5169499;27;19911;-77
2023/03/31 06:16:21;;;;;;;1999.90;999.90;;;;;;;10.65;100.00;97600.69;5170064;27;20066;-75
2023/03/31 06:18:46;;;;;;;1999.90;999.90;;;;;;;10.67;100.00;97609.41;5169502;27;20531;-77
2023/03/31 06:21:17;;;;;;;1999.90;999.90;;;;;;;10.63;100.00;97602.13;5170141;27;20542;-77
2023/03/31 06:23:44;;;;;;;1999.90;999.90;;;;;;;10.66;100.00;97596.84;5151311;27;20160;-76
2023/03/31 06:26:17;;;;;;;1999.90;999.90;;;;;;;10.71;100.00;97594.00;5186192;27;20030;-76
2023/03/31 06:28:44;;;;;;;1999.90;999.90;;;;;;;10.77;100.00;97593.91;5158070;27;20463;-76
2023/03/31 06:31:12;;;;;;;1999.90;999.90;;;;;;;10.87;100.00;97596.44;5149267;27;20019;-76
2023/03/31 06:33:39;;;;;;;1999.90;999.90;;;;;;;10.92;100.00;97602.59;5149038;27;20027;-76
2023/03/31 06:36:05;;;;;;;1999.90;999.90;;;;;;;10.99;100.00;97605.75;5148959;27;20531;-76
2023/03/31 06:38:35;;;;;;;1999.90;999.90;;;;;;;11.02;100.00;97604.31;5149423;27;20019;-77
2023/03/31 06:41:01;;;;;;;1999.90;999.90;;;;;;;10.88;100.00;97598.03;5148815;27;20027;-76
2023/03/31 06:43:27;;;;;;;1999.90;999.90;;;;;;;10.90;100.00;97598.56;5149076;27;20110;-75
2023/03/31 06:45:53;;;;;;;1999.90;999.90;;;;;;;10.88;100.00;97587.09;5149176;27;20030;-76
2023/03/31 06:48:19;;;;;;;1999.90;999.90;;;;;;;10.88;100.00;97598.84;5130832;27;20053;-76
2023/03/31 06:50:45;;;;;;;1999.90;999.90;;;;;;;10.87;100.00;97580.81;5149349;27;20054;-76
2023/03/31 06:53:10;;;;;;;1999.90;999.90;;;;;;;10.98;100.00;97593.16;5149068;27;20026;-77
2023/03/31 06:55:36;;;;;;;1999.90;999.90;;;;;;;11.00;100.00;97595.59;5149074;27;20026;-76
2023/03/31 06:58:02;;;;;;;1999.90;999.90;;;;;;;10.86;100.00;97600.28;5150188;27;20029;-76
2023/03/31 07:00:28;;;;;;;1999.90;999.90;;;;;;;11.02;100.00;97596.94;5130794;27;20421;-75
2023/03/31 07:02:54;;;;;;;1999.90;999.90;;;;;;;11.07;100.00;97602.28;5149075;27;20019;-76
2023/03/31 07:05:25;;;;;;;1999.90;999.90;;;;;;;11.02;100.00;97601.59;5149385;27;20037;-76
2023/03/31 07:07:52;;;;;;;1999.90;999.90;;;;;;;11.02;100.00;97587.91;5149230;27;20550;-75
2023/03/31 07:10:17;;;;;;;1999.90;999.90;;;;;;;10.99;100.00;97592.06;5149207;27;20464;-76
2023/03/31 07:12:43;;;;;;;1999.90;999.90;;;;;;;10.92;100.00;97593.59;5149717;27;20062;-75
2023/03/31 07:15:09;;;;;;;1999.90;999.90;;;;;;;10.88;100.00;97598.03;5133423;27;20559;-77
2023/03/31 07:17:36;;;;;;;1999.90;999.90;;;;;;;10.96;100.00;97594.59;5152870;27;20027;-79
2023/03/31 07:20:03;;;;;;;1999.90;999.90;;;;;;;11.01;100.00;97576.13;5136905;27;20023;-77
2023/03/31 07:22:29;;;;;;;1999.90;999.90;;;;;;;11.13;100.00;97578.34;5117345;27;20046;-78
2023/03/31 07:24:55;;;;;;;1999.90;999.90;;;;;;;11.17;100.00;97573.88;5116111;27;20088;-76
2023/03/31 07:27:20;;;;;;;1999.90;999.90;;;;;;;11.32;100.00;97570.78;5134555;27;20110;-76
2023/03/31 07:29:46;;;;;;;1999.90;999.90;;;;;;;11.48;100.00;97568.47;5115907;27;20457;-76
2023/03/31 07:32:11;;;;;;;1999.90;999.90;;;;;;;11.71;100.00;97568.22;5116136;27;20090;-76
2023/03/31 07:34:37;;;;;;;1999.90;999.90;;;;;;;11.94;100.00;97560.78;5116273;27;20387;-76
2023/03/31 07:37:03;;;;;;;1999.90;999.90;;;;;;;12.13;100.00;97558.63;5134294;27;20050;-75
2023/03/31 07:39:28;;;;;;;1999.90;999.90;;;;;;;12.34;100.00;97553.41;5134662;27;20464;-76
2023/03/31 07:41:54;;;;;;;1999.90;999.90;;;;;;;12.41;100.00;97542.78;5134649;27;20026;-76
2023/03/31 07:44:20;;;;;;;1999.90;999.90;;;;;;;12.57;100.00;97541.22;5134542;27;20027;-76
2023/03/31 07:46:46;;;;;;;1999.90;999.90;;;;;;;12.79;100.00;97535.63;5133873;27;20114;-76
2023/03/31 07:49:14;;;;;;;1999.90;999.90;;;;;;;12.92;100.00;97544.03;5133934;27;20147;-77
2023/03/31 07:51:40;;;;;;;1999.90;999.90;;;;;;;13.06;100.00;97531.00;5115222;27;20038;-76
2023/03/31 07:54:05;;;;;;;1999.90;999.90;;;;;;;13.30;100.00;97537.66;5134294;27;20019;-76
2023/03/31 07:56:31;;;;;;;1999.90;999.90;;;;;;;13.26;100.00;97525.69;5133702;27;20031;-76
2023/03/31 07:58:56;;;;;;;1999.90;999.90;;;;;;;13.28;100.00;97528.13;5134105;27;20114;-77
2023/03/31 08:01:24;;;;;;;1999.90;999.90;;;;;;;13.30;100.00;97525.84;5115387;27;20043;-76
2023/03/31 08:03:53;;;;;;;1999.90;999.90;;;;;;;13.58;100.00;97521.63;5133597;27;20390;-77
2023/03/31 08:06:21;;;;;;;1999.90;999.90;;;;;;;13.63;100.00;97524.22;5133645;27;20023;-77
2023/03/31 08:08:48;;;;;;;1999.90;999.90;;;;;;;13.95;100.00;97515.41;5114908;27;20063;-77
2023/03/31 08:11:13;;;;;;;1999.90;999.90;;;;;;;14.01;100.00;97502.28;5133648;27;20033;-77
2023/03/31 08:13:39;;;;;;;1999.90;999.90;;;;;;;14.83;100.00;97493.50;5133646;27;20027;-77
2023/03/31 08:16:04;;;;;;;1999.90;999.90;;;;;;;15.92;100.00;97491.28;5133707;27;20378;-76
2023/03/31 08:18:30;;;;;;;1999.90;999.90;;;;;;;16.28;100.00;97495.25;5133922;27;20031;-75
2023/03/31 08:20:55;;;;;;;1999.90;999.90;;;;;;;17.33;100.00;97510.81;5133480;27;20031;-74
2023/03/31 08:23:21;;;;;;;1999.90;999.90;;;;;;;18.03;100.00;97526.72;5135140;27;20081;-75
2023/03/31 08:25:46;;;;;;;1999.90;999.90;;;;;;;17.12;100.00;97503.53;5133810;27;20069;-73
2023/03/31 08:28:13;;;;;;;1999.90;999.90;;;;;;;16.40;100.00;97503.53;5133192;27;20031;-76
2023/03/31 08:30:39;;;;;;;1999.90;999.90;;;;;;;15.90;100.00;97507.38;5132373;27;20023;-74
2023/03/31 08:33:06;;;;;;;1999.90;999.90;;;;;;;15.71;100.00;97509.81;5114997;27;20068;-75
2023/03/31 08:35:35;;;;;;;1999.90;999.90;;;;;;;15.67;100.00;97497.84;5133061;27;20063;-76
2023/03/31 08:38:00;;;;;;;1999.90;999.90;;;;;;;15.50;100.00;97500.78;5133249;27;20071;-75
2023/03/31 08:40:28;;;;;;;1999.90;999.90;;;;;;;15.28;100.00;97498.34;5133044;27;20023;-75
2023/03/31 08:42:59;;;;;;;1999.90;999.90;;;;;;;14.75;100.00;97497.13;5114608;27;20059;-75
2023/03/31 08:45:31;;;;;;;1999.90;999.90;;;;;;;14.44;100.00;97499.38;5133058;27;20015;-76
2023/03/31 08:48:03;;;;;;;1999.90;999.90;;;;;;;14.12;100.00;97494.50;5133475;27;20027;-74
2023/03/31 08:50:34;;;;;;;1999.90;999.90;;;;;;;13.87;100.00;97496.19;5133079;27;20076;-75
2023/03/31 08:53:09;;;;;;;1999.90;999.90;;;;;;;13.82;100.00;97488.91;5133638;27;20476;-75
2023/03/31 08:55:42;;;;;;;;;;;;;;;13.60;100.00;97475.38;5134088;27;20134;-74
2023/03/31 08:58:35;;;;;;;1999.90;999.90;;;;;;;13.35;100.00;97473.50;5133508;27;20006;-75
2023/03/31 09:01:12;;;;;;;1999.90;999.90;;;;;;;13.16;100.00;97464.78;5132786;27;20023;-75
2023/03/31 09:04:19;;;;;;;1999.90;999.90;;;;;;;12.87;100.00;97457.19;5132758;27;20027;-76
2023/03/31 09:07:01;;;;;;;1999.90;999.90;;;;;;;12.65;100.00;97449.09;5113932;27;20065;-75
2023/03/31 09:10:02;;;;;;;1999.90;999.90;;;;;;;12.62;100.00;97445.06;5114212;27;20220;-74
2023/03/31 09:12:44;;;;;;;1999.90;999.90;;;;;;;12.70;100.00;97441.50;5100052;27;20020;-75
2023/03/31 09:15:13;;;;;;;1999.90;999.90;;;;;;;12.70;100.00;97446.16;5132788;27;20520;-75
2023/03/31 09:17:50;;;;;;;1999.90;999.90;;;;;;;12.72;100.00;97428.25;5115008;27;20371;-75
2023/03/31 09:20:38;;;;;;;1999.90;999.90;;;;;;;12.73;100.00;97424.38;5114686;27;20067;-75
2023/03/31 09:23:19;;;;;;;1999.90;999.90;;;;;;;12.92;100.00;97424.06;5137030;27;20019;-76
2023/03/31 09:25:45;;;;;;;1999.90;999.90;;;;;;;13.13;100.00;97429.72;5139125;27;20064;-75
2023/03/31 09:28:24;;;;;;;1999.90;999.90;;;;;;;13.29;100.00;97425.34;5116168;27;20038;-75
2023/03/31 09:30:50;;;;;;;1999.90;999.90;;;;;;;13.11;100.00;97416.34;5114166;27;20027;-75
2023/03/31 09:33:30;;;;;;;1999.90;999.90;;;;;;;12.92;100.00;97426.81;5132967;27;20086;-76
2023/03/31 09:35:57;;;;;;;1999.90;999.90;;;;;;;12.79;100.00;97414.84;5114381;27;20054;-75
2023/03/31 09:38:22;;;;;;;1999.90;999.90;;;;;;;12.80;100.00;97397.28;5132949;27;20019;-76
2023/03/31 09:40:48;;;;;;;1999.90;999.90;;;;;;;12.91;100.00;97408.72;5116247;27;20420;-75
2023/03/31 09:43:28;;;;;;;1999.90;999.90;;;;;;;12.80;100.00;97408.25;5135674;27;20031;-76
2023/03/31 09:45:54;;;;;;;1999.90;999.90;;;;;;;12.77;100.00;97413.56;5117600;27;20503;-75
2023/03/31 09:48:27;;;;;;;1999.90;999.90;;;;;;;12.73;100.00;97413.41;5135480;27;20168;-76
2023/03/31 09:51:01;;;;;;;1999.90;999.90;;;;;;;12.73;100.00;97402.44;5114448;27;20396;-75
2023/03/31 09:53:41;;;;;;;1999.90;999.90;;;;;;;12.65;100.00;97406.00;5113232;27;20020;-75
2023/03/31 09:56:10;;;;;;;1999.90;999.90;;;;;;;12.68;100.00;97399.03;5131851;27;20034;-75
2023/03/31 09:58:43;;;;;;;1999.90;999.90;;;;;;;12.52;100.00;97392.41;5113187;27;20023;-76
2023/03/31 10:01:10;;;;;;;1999.90;999.90;;;;;;;12.42;100.00;97390.78;5131644;27;20476;-74
2023/03/31 10:03:54;;;;;;;1999.90;999.90;;;;;;;12.35;100.00;97410.47;5131636;27;20019;-75
2023/03/31 10:06:21;;;;;;;1999.90;999.90;;;;;;;12.13;100.00;97407.00;5131646;27;20026;-77
2023/03/31 10:08:56;;;;;;;1999.90;999.90;;;;;;;12.35;100.00;97391.25;5131422;28;20051;-75
2023/03/31 10:11:23;;;;;;;1999.90;999.90;;;;;;;12.43;100.00;97389.66;5131711;27;20026;-76
2023/03/31 10:13:58;;;;;;;1999.90;999.90;;;;;;;12.60;100.00;97386.94;5113706;28;20027;-73
2023/03/31 10:16:30;;;;;;;1999.90;999.90;;;;;;;12.39;100.00;97377.72;5131839;28;20030;-75
2023/03/31 10:19:21;;;;;;;1999.90;999.90;;;;;;;12.70;100.00;97375.63;5131865;27;20479;-74
2023/03/31 10:21:55;;;;;;;1999.90;999.90;;;;;;;12.78;100.00;97371.28;5131654;27;20168;-74
2023/03/31 10:24:20;;;;;;;1999.90;999.90;;;;;;;13.13;100.00;97366.56;5131851;28;20031;-74
2023/03/31 10:26:53;;;;;;;1999.90;999.90;;;;;;;13.37;100.00;97367.63;5113348;28;20030;-74
2023/03/31 10:29:37;;;;;;;1999.90;999.90;;;;;;;13.08;100.00;97358.47;5113809;28;20456;-77
2023/03/31 10:32:11;;;;;;;1999.90;999.90;;;;;;;13.00;100.00;97364.81;5131904;27;20015;-76
2023/03/31 10:34:41;;;;;;;1999.90;999.90;;;;;;;13.15;100.00;97369.81;5113786;28;20024;-77
2023/03/31 10:37:10;;;;;;;1999.90;999.90;;;;;;;13.12;100.00;97363.03;5135321;27;20023;-75
2023/03/31 10:39:35;;;;;;;1999.90;999.90;;;;;;;12.97;100.00;97363.50;5134919;27;20027;-75
2023/03/31 10:42:01;;;;;;;1999.90;999.90;;;;;;;12.84;100.00;97359.00;5116001;28;20156;-74
2023/03/31 10:44:29;;;;;;;1999.90;999.90;;;;;;;12.54;100.00;97355.28;5131095;27;20067;-74
2023/03/31 10:47:02;;;;;;;1999.90;999.90;;;;;;;12.43;100.00;97344.97;5131140;28;20037;-74
2023/03/31 10:49:27;;;;;;;1999.90;999.90;;;;;;;12.34;100.00;97350.47;5113103;28;20115;-75
2023/03/31 10:51:58;;;;;;;1999.90;999.90;;;;;;;12.42;100.00;97349.66;5131455;28;20054;-75
2023/03/31 10:54:24;;;;;;;1999.90;999.90;;;;;;;12.30;100.00;97342.06;5113613;27;20110;-73
2023/03/31 10:57:04;;;;;;;1999.90;999.90;;;;;;;12.18;100.00;97332.84;5133861;27;20114;-73
2023/03/31 10:59:45;;;;;;;1999.90;999.90;;;;;;;12.12;100.00;97321.22;5134118;27;20395;-73
2023/03/31 11:02:37;;;;;;;1999.90;999.90;;;;;;;12.20;100.00;97328.66;5115972;27;20031;-73
2023/03/31 11:05:12;;;;;;;1999.90;999.90;;;;;;;12.14;100.00;97315.44;5102067;27;20395;-74
2023/03/31 11:07:48;;;;;;;1999.90;999.90;;;;;;;12.10;100.00;97322.66;5134169;27;20043;-72
2023/03/31 11:10:43;;;;;;;1999.90;999.90;;;;;;;11.93;100.00;97311.69;5116253;27;20074;-74
2023/03/31 11:13:19;;;;;;;1999.90;999.90;;;;;;;11.84;100.00;97316.34;5117020;27;20020;-74
2023/03/31 11:16:00;;;;;;;;;;;;;;;11.74;100.00;97314.72;5135278;27;20387;-74
2023/03/31 11:18:28;;;;;;;1999.90;999.90;;;;;;;11.41;100.00;97316.16;5135515;27;19912;-75
2023/03/31 11:21:12;;;;;;;1999.90;999.90;;;;;;;11.31;100.00;97316.47;5117017;27;20026;-74
2023/03/31 11:23:37;;;;;;;1999.90;999.90;;;;;;;11.20;100.00;97310.44;5116833;27;20497;-74
2023/03/31 11:26:14;;;;;;;1999.90;999.90;;;;;;;11.26;100.00;97304.53;5135369;27;20016;-76
2023/03/31 11:28:58;;;;;;;1999.90;999.90;;;;;;;11.05;100.00;97294.44;5135039;27;20054;-74
2023/03/31 11:31:39;;;;;;;1999.90;999.90;;;;;;;11.03;100.00;97293.94;5136511;27;20385;-78
2023/03/31 11:34:24;;;;;;;1999.90;999.90;;;;;;;10.91;100.00;97285.50;5124931;27;20023;-77
2023/03/31 11:37:20;;;;;;;1999.90;999.90;;;;;;;10.77;100.00;97280.13;5134761;27;20139;-76
2023/03/31 11:40:08;;;;;;;1999.90;999.90;;;;;;;10.72;100.00;97278.31;5115733;27;20115;-78
2023/03/31 11:42:40;;;;;;;1999.90;999.90;;;;;;;10.67;100.00;97270.25;5116206;27;20069;-76
2023/03/31 11:45:17;;;;;;;1999.90;999.90;;;;;;;10.71;100.00;97271.22;5134253;27;20023;-77
2023/03/31 11:47:45;;;;;;;1999.90;999.90;;;;;;;10.83;100.00;97261.66;5134326;27;20031;-76
2023/03/31 11:50:20;;;;;;;1999.90;999.90;;;;;;;10.81;100.00;97263.91;5133303;27;20023;-78
2023/03/31 11:52:59;;;;;;;1999.90;999.90;;;;;;;10.94;100.00;97260.25;5115455;27;20070;-76
2023/03/31 11:55:28;;;;;;;1999.90;999.90;;;;;;;10.95;100.00;97265.41;5133561;27;20071;-76
2023/03/31 11:58:13;;;;;;;1999.90;999.90;;;;;;;10.92;100.00;97254.28;5131082;27;20059;-76
2023/03/31 12:00:58;;;;;;;1999.90;999.90;;;;;;;10.95;100.00;97253.66;5112969;27;20026;-80
2023/03/31 12:03:56;;;;;;;1999.90;999.90;;;;;;;11.01;100.00;97253.22;5131015;27;20102;-76
2023/03/31 12:06:26;;;;;;;1999.90;999.90;;;;;;;11.01;100.00;97258.69;5134374;27;20627;-77
2023/03/31 12:09:22;;;;;;;1999.90;999.90;;;;;;;11.03;100.00;97242.75;5118596;27;20051;-76
2023/03/31 12:12:15;;;;;;;1999.90;999.90;;;;;;;10.93;100.00;97240.28;5136292;27;20034;-87
2023/03/31 12:14:59;;;;;;;1999.90;999.90;;;;;;;11.10;100.00;97228.59;5136606;27;20046;-85
2023/03/31 12:17:26;;;;;;;1999.90;999.90;;;;;;;11.17;100.00;97218.00;5137965;27;20042;-78
2023/03/31 12:19:59;;;;;;;1999.90;999.90;;;;;;;11.17;100.00;97207.88;5133826;27;20035;-78
2023/03/31 12:22:27;;;;;;;1999.90;999.90;;;;;;;11.54;100.00;97209.25;5133438;27;20094;-76
2023/03/31 12:24:53;;;;;;;1999.90;999.90;;;;;;;11.65;100.00;97209.75;5133743;27;20019;-78
2023/03/31 12:27:39;;;;;;;1999.90;999.90;;;;;;;11.82;100.00;97204.31;5133272;27;20734;-81
2023/03/31 12:30:13;;;;;;;1999.90;999.90;;;;;;;12.13;100.00;97198.66;5134746;27;20471;-85
2023/03/31 12:32:44;;;;;;;1999.90;999.90;;;;;;;12.11;100.00;97193.50;5120085;27;20027;-87
2023/03/31 12:35:22;;;;;;;1999.90;999.90;;;;;;;12.50;100.00;97189.72;5137642;27;20023;-88
2023/03/31 12:38:13;;;;;;;1999.90;999.90;;;;;;;13.05;100.00;97184.22;5138159;27;20759;-82
2023/03/31 12:40:44;;;;;;;1999.90;999.90;;;;;;;13.42;100.00;97174.34;5136009;27;20023;-88
2023/03/31 12:43:29;;;;;;;1999.90;999.90;;;;;;;13.30;100.00;97166.84;5136154;27;20030;-81
2023/03/31 12:46:01;;;;;;;1999.90;999.90;;;;;;;13.49;100.00;97171.88;5116933;27;20027;-83
2023/03/31 12:48:41;;;;;;;1999.90;999.90;;;;;;;13.19;100.00;97154.59;5133957;27;20038;-79
2023/03/31 12:51:25;;;;;;;1999.90;999.90;;;;;;;13.19;100.00;97151.06;5116147;27;20039;-76
2023/03/31 12:54:10;;;;;;;1999.90;999.90;;;;;;;13.22;100.00;97144.91;5133743;27;20023;-83
2023/03/31 12:57:01;;;;;;;1999.90;999.90;;;;;;;13.45;100.00;97145.41;5134061;27;20098;-76
2023/03/31 12:59:40;;;;;;;1999.90;999.90;;;;;;;13.15;100.00;97150.13;5132418;27;20081;-81
2023/03/31 13:02:08;;;;;;;1999.90;999.90;;;;;;;13.18;100.00;97157.69;5133077;27;20083;-78
2023/03/31 13:04:33;;;;;;;1999.90;999.90;;;;;;;13.01;100.00;97136.59;5114389;27;20019;-84
2023/03/31 13:06:59;;;;;;;1999.90;999.90;;;;;;;13.15;100.00;97115.25;5131369;27;20034;-76
2023/03/31 13:09:40;;;;;;;1999.90;999.90;;;;;;;13.23;100.00;97113.56;5133614;27;20069;-84
2023/03/31 13:12:07;;;;;;;1999.90;999.90;;;;;;;13.49;100.00;97121.63;5132785;27;20072;-79
2023/03/31 13:14:39;;;;;;;1999.90;999.90;;;;;;;13.19;100.00;97109.84;5132574;27;20015;-77
2023/03/31 13:17:23;;;;;;;1999.90;999.90;;;;;;;13.34;100.00;97112.03;5132256;27;20120;-75
2023/03/31 13:19:50;;;;;;;1999.90;999.90;;;;;;;13.47;100.00;97105.47;5132819;27;20027;-76
2023/03/31 13:22:34;;;;;;;1999.90;999.90;;;;;;;13.51;100.00;97100.09;5132140;27;20034;-80
2023/03/31 13:25:28;;;;;;;1999.90;999.90;;;;;;;13.50;100.00;97107.53;5132765;27;20015;-78
2023/03/31 13:27:54;;;;;;;1999.90;999.90;;;;;;;13.30;100.00;97097.34;5132589;27;20043;-77
2023/03/31 13:30:34;;;;;;;1999.90;999.90;;;;;;;13.28;100.00;97083.94;5114179;27;20031;-76
2023/03/31 13:33:14;;;;;;;1999.90;999.90;;;;;;;13.37;100.00;97075.66;5132662;27;20042;-76
2023/03/31 13:35:45;;;;;;;1999.90;999.90;;;;;;;13.30;100.00;97064.41;5115603;27;20019;-81
2023/03/31 13:38:25;;;;;;;1999.90;999.90;;;;;;;13.35;100.00;97062.25;5134378;27;20064;-80
2023/03/31 13:40:53;;;;;;;1999.90;999.90;;;;;;;12.99;100.00;97050.22;5137207;27;20031;-82
2023/03/31 13:43:28;;;;;;;1999.90;999.90;;;;;;;12.87;100.00;97056.44;5121430;27;20418;-77
2023/03/31 13:46:15;;;;;;;1999.90;999.90;;;;;;;12.76;100.00;97050.50;5132243;27;20038;-80
2023/03/31 13:49:28;;;;;;;1999.90;999.90;;;;;;;12.66;100.00;97026.19;5094290;28;20472;-85
2023/03/31 13:51:58;;;;;;;1999.90;999.90;;;;;;;12.49;100.00;97012.59;5088719;27;20087;-87
2023/03/31 13:54:35;;;;;;;1999.90;999.90;;;;;;;12.65;100.00;97027.34;5131803;27;20432;-82
2023/03/31 13:57:32;;;;;;;1999.90;999.90;;;;;;;12.71;100.00;97016.97;5135010;27;20027;-83
2023/03/31 14:00:16;;;;;;;;;;;;;;;12.64;100.00;97012.00;5135206;27;20524;-81
2023/03/31 14:02:44;;;;;;;1999.90;999.90;;;;;;;12.57;100.00;97011.72;5132003;27;19973;-77
2023/03/31 14:05:32;;;;;;;1999.90;999.90;;;;;;;12.46;100.00;97012.44;5132749;27;20023;-80
2023/03/31 14:08:02;;;;;;;1999.90;999.90;;;;;;;12.40;100.00;96995.38;5131848;28;20100;-76
2023/03/31 14:10:36;;;;;;;1999.90;999.90;;;;;;;12.40;100.00;97000.84;5132629;28;20080;-81
2023/03/31 14:13:16;;;;;;;1999.90;999.90;;;;;;;12.44;100.00;96999.03;5114249;28;20035;-79
2023/03/31 14:15:51;;;;;;;1999.90;999.90;;;;;;;12.42;100.00;96987.59;5115767;28;20069;-78
2023/03/31 14:18:42;;;;;;;1999.90;999.90;;;;;;;12.47;100.00;96992.88;5133849;28;20031;-82
2023/03/31 14:21:46;;;;;;;1999.90;999.90;;;;;;;12.43;100.00;96989.22;5115025;28;20043;-84
2023/03/31 14:24:43;;;;;;;1999.90;999.90;;;;;;;12.48;100.00;96989.03;5057152;28;20083;-76
2023/03/31 14:27:44;;;;;;;1999.90;999.90;;;;;;;12.41;100.00;96983.25;5064807;28;20051;-75
2023/03/31 14:30:37;;;;;;;1999.90;999.90;;;;;;;12.43;100.00;96977.44;5105905;27;20046;-83
2023/03/31 14:33:26;;;;;;;1999.90;999.90;;;;;;;12.31;100.00;96969.91;5144204;27;20023;-92
2023/03/31 14:36:01;;;;;;;1999.90;999.90;;;;;;;12.30;100.00;96971.06;5144421;27;20424;-82
2023/03/31 14:38:27;;;;;;;;;;;;;;;12.37;100.00;96976.03;5144694;27;20498;-80
2023/03/31 14:40:55;;;;;;;;;;;;;;;12.30;100.00;96971.06;5140981;27;19922;-87
2023/03/31 14:43:24;;;;;;;1999.90;999.90;;;;;;;12.29;100.00;96962.03;5135167;27;19926;-85
2023/03/31 14:46:20;;;;;;;1999.90;999.90;;;;;;;12.24;100.00;96978.66;5124074;27;20110;-88
2023/03/31 14:48:47;;;;;;;1999.90;999.90;;;;;;;12.28;100.00;96974.13;5119264;27;20035;-77
2023/03/31 14:51:28;;;;;;;1999.90;999.90;;;;;;;12.28;100.00;96978.78;5134141;27;20484;-76
2023/03/31 14:54:01;;;;;;;1999.90;999.90;;;;;;;12.29;100.00;96980.41;5105229;27;20031;-77
2023/03/31 14:56:39;;;;;;;1999.90;999.90;;;;;;;12.34;100.00;96977.50;5133451;27;20505;-76
2023/03/31 14:59:07;;;;;;;1999.90;999.90;;;;;;;12.24;100.00;96955.94;5135198;27;20088;-76
2023/03/31 15:01:34;;;;;;;1999.90;999.90;;;;;;;12.29;100.00;96958.47;5134370;27;20015;-76
2023/03/31 15:04:05;;;;;;;1999.90;999.90;;;;;;;12.34;100.00;96945.38;5133719;27;20080;-74
2023/03/31 15:06:32;;;;;;;1999.90;999.90;;;;;;;12.34;100.00;96939.09;5116476;27;20416;-77
2023/03/31 15:09:01;;;;;;;1999.90;999.90;;;;;;;12.36;100.00;96934.06;5115614;27;20078;-75
2023/03/31 15:11:28;;;;;;;1999.90;999.90;;;;;;;12.47;100.00;96931.78;5117033;27;20023;-76
2023/03/31 15:13:55;;;;;;;1999.90;999.90;;;;;;;12.58;100.00;96931.03;5113881;27;20031;-75
2023/03/31 15:16:21;;;;;;;1999.90;999.90;;;;;;;12.62;100.00;96929.25;5131966;27;20036;-75
2023/03/31 15:18:46;;;;;;;1999.90;999.90;;;;;;;12.63;100.00;96924.53;5132673;27;20391;-75
2023/03/31 15:21:23;;;;;;;1999.90;999.90;;;;;;;12.62;100.00;96928.44;5132546;27;20059;-75
2023/03/31 15:23:53;;;;;;;1999.90;999.90;;;;;;;12.63;100.00;96917.09;5132940;27;20115;-75
2023/03/31 15:26:25;;;;;;;1999.90;999.90;;;;;;;12.55;100.00;96922.66;5132892;27;20111;-75
2023/03/31 15:28:57;;;;;;;1999.90;999.90;;;;;;;12.66;100.00;96924.66;5133694;27;20356;-75
2023/03/31 15:31:25;;;;;;;1999.90;999.90;;;;;;;12.53;100.00;96920.25;5134027;27;20049;-76
2023/03/31 15:33:51;;;;;;;1999.90;999.90;;;;;;;12.54;100.00;96912.81;5133982;27;20516;-74
2023/03/31 15:36:20;;;;;;;1999.90;999.90;;;;;;;12.55;100.00;96908.94;5125410;27;20031;-75
2023/03/31 15:38:46;;;;;;;1999.90;999.90;;;;;;;12.54;100.00;96901.84;5114724;27;20118;-75
2023/03/31 15:41:15;;;;;;;1999.90;999.90;;;;;;;12.53;100.00;96914.75;5133857;27;20019;-75
2023/03/31 15:43:41;;;;;;;1999.90;999.90;;;;;;;12.44;100.00;96903.03;5135236;27;20448;-79
2023/03/31 15:46:10;;;;;;;1999.90;999.90;;;;;;;12.46;100.00;96889.81;5124204;27;20027;-77
2023/03/31 15:48:47;;;;;;;1999.90;999.90;;;;;;;12.44;100.00;96894.81;5140959;27;20022;-77
2023/03/31 15:51:12;;;;;;;1999.90;999.90;;;;;;;12.45;100.00;96899.16;5154986;27;20038;-76
2023/03/31 15:53:45;;;;;;;1999.90;999.90;;;;;;;12.47;100.00;96894.16;5148754;27;20072;-74
2023/03/31 15:56:43;;;;;;;1999.90;999.90;;;;;;;12.46;100.00;96883.53;5135627;27;20106;-75
2023/03/31 15:59:25;;;;;;;1999.90;999.90;;;;;;;12.54;100.00;96886.19;5133108;27;20031;-75
2023/03/31 16:01:51;;;;;;;1999.90;999.90;;;;;;;12.49;100.00;96883.66;5132950;27;20479;-76
2023/03/31 16:04:17;;;;;;;1999.90;999.90;;;;;;;12.43;100.00;96887.75;5132812;27;20065;-76
2023/03/31 16:06:54;;;;;;;1999.90;999.90;;;;;;;12.48;100.00;96871.06;5124408;27;20123;-76
2023/03/31 16:09:41;;;;;;;1999.90;999.90;;;;;;;12.41;100.00;96879.03;5132806;27;20046;-75
2023/03/31 16:12:16;;;;;;;1999.90;999.90;;;;;;;12.35;100.00;96880.34;5125877;27;20130;-76
2023/03/31 16:14:56;;;;;;;1999.90;999.90;;;;;;;12.31;100.00;96874.72;5132372;27;20069;-74
2023/03/31 16:17:31;;;;;;;1999.90;999.90;;;;;;;12.33;100.00;96883.44;5116038;27;20095;-75
2023/03/31 16:20:09;;;;;;;1999.90;999.90;;;;;;;12.30;100.00;96877.81;5126834;27;20023;-75
2023/03/31 16:22:46;;;;;;;1999.90;999.90;;;;;;;12.21;100.00;96868.84;5132179;27;20072;-75
2023/03/31 16:25:15;;;;;;;1999.90;999.90;;;;;;;12.24;100.00;96869.00;5112390;27;20030;-74
2023/03/31 16:27:45;;;;;;;1999.90;999.90;;;;;;;12.24;100.00;96868.19;5132690;27;20027;-74
2023/03/31 16:30:17;;;;;;;1999.90;999.90;;;;;;;12.23;100.00;96872.88;5124812;27;20031;-75
2023/03/31 16:33:09;;;;;;;1999.90;999.90;;;;;;;12.19;100.00;96871.09;5132161;27;20035;-75
2023/03/31 16:35:38;;;;;;;1999.90;999.90;;;;;;;12.17;100.00;96868.72;5116463;27;20027;-76
2023/03/31 16:38:14;;;;;;;1999.90;999.90;;;;;;;12.18;100.00;96875.00;5113430;27;20110;-76
2023/03/31 16:40:42;;;;;;;1999.90;999.90;;;;;;;12.10;100.00;96870.34;5132383;27;20433;-75
2023/03/31 16:43:26;;;;;;;1999.90;999.90;;;;;;;12.12;100.00;96862.63;5132668;27;20649;-73
2023/03/31 16:45:54;;;;;;;1999.90;999.90;;;;;;;12.11;100.00;96869.22;5133115;27;20023;-76
2023/03/31 16:48:22;;;;;;;1999.90;999.90;;;;;;;12.11;100.00;96870.03;5134275;27;20075;-75
2023/03/31 16:50:51;;;;;;;1999.90;999.90;;;;;;;12.22;100.00;96875.94;5132227;27;20024;-76
2023/03/31 16:53:21;;;;;;;1999.90;999.90;;;;;;;12.11;100.00;96870.03;5111143;27;20494;-76
2023/03/31 16:55:46;;;;;;;1999.90;999.90;;;;;;;12.08;100.00;96869.91;5129810;27;20031;-74
2023/03/31 16:58:12;;;;;;;1999.90;999.90;;;;;;;12.12;100.00;96866.16;5128427;27;20008;-75
2023/03/31 17:00:39;;;;;;;1999.90;999.90;;;;;;;12.06;100.00;96869.44;5124849;27;20041;-74
2023/03/31 17:03:06;;;;;;;1999.90;999.90;;;;;;;12.05;100.00;96865.09;5127977;27;20110;-80
2023/03/31 17:05:37;;;;;;;1999.90;999.90;;;;;;;11.97;100.00;96865.91;5117324;27;20064;-77
2023/03/31 17:08:04;;;;;;;1999.90;999.90;;;;;;;12.02;100.00;96865.75;5128979;27;20050;-76
2023/03/31 17:10:29;;;;;;;1999.90;999.90;;;;;;;11.94;100.00;96852.88;5122934;27;20027;-76
2023/03/31 17:12:55;;;;;;;1999.90;999.90;;;;;;;11.71;100.00;96847.69;5127240;27;20027;-75
2023/03/31 17:15:21;;;;;;;1999.90;999.90;;;;;;;11.59;100.00;96838.53;5130009;27;20019;-76
2023/03/31 17:17:47;;;;;;;1999.90;999.90;;;;;;;11.55;100.00;96835.66;5121680;27;20479;-73
2023/03/31 17:20:12;;;;;;;1999.90;999.90;;;;;;;11.57;100.00;96838.84;5127259;27;20031;-74
2023/03/31 17:22:37;;;;;;;1999.90;999.90;;;;;;;11.63;100.00;96853.16;5131281;27;20024;-73
2023/03/31 17:25:04;;;;;;;1999.90;999.90;;;;;;;11.62;100.00;96855.09;5112820;27;20038;-74